createdAt,value
2023-03-22T00:01:23.485Z,18.10
2023-03-22T00:03:51.703Z,19.17
2023-03-22T00:06:19.559Z,20.60
2023-03-22T00:08:51.548Z,19.25
2023-03-22T00:11:20.243Z,21.00
2023-03-22T00:13:47.594Z,23.50
2023-03-22T00:16:15.528Z,21.02
2023-03-22T00:18:42.827Z,20.63
2023-03-22T00:21:13.370Z,18.77
2023-03-22T00:23:41.056Z,22.52
2023-03-22T00:26:10.817Z,19.98
2023-03-22T00:28:39.476Z,17.23
2023-03-22T00:31:07.208Z,18.40
2023-03-22T00:33:35.342Z,20.42
2023-03-22T00:36:05.228Z,20.30
2023-03-22T00:38:43.751Z,21.65
2023-03-22T00:41:19.355Z,20.15
2023-03-22T00:43:47.402Z,18.10
2023-03-22T00:46:16.702Z,19.13
2023-03-22T00:48:44.320Z,21.35
2023-03-22T00:51:12.309Z,18.50
2023-03-22T00:53:42.792Z,18.52
2023-03-22T00:56:13.933Z,18.57
2023-03-22T00:58:52.692Z,19.27
2023-03-22T01:01:20.734Z,17.95
2023-03-22T01:03:50.625Z,19.13
2023-03-22T01:06:18.667Z,17.92
2023-03-22T01:08:46.203Z,20.40
2023-03-22T01:11:13.457Z,20.50
2023-03-22T01:13:43.469Z,17.58
2023-03-22T01:16:12.227Z,19.25
2023-03-22T01:18:39.951Z,16.95
2023-03-22T01:21:08.649Z,18.87
2023-03-22T01:23:36.303Z,19.13
2023-03-22T01:26:04.019Z,17.85
2023-03-22T01:28:31.587Z,18.38
2023-03-22T01:31:02.109Z,19.60
2023-03-22T01:33:31.032Z,21.97
2023-03-22T01:35:58.775Z,20.05
2023-03-22T01:38:26.525Z,20.25
2023-03-22T01:40:57.673Z,20.38
2023-03-22T01:43:25.927Z,20.75
2023-03-22T01:45:54.332Z,18.37
2023-03-22T01:48:30.295Z,18.73
2023-03-22T01:51:10.246Z,19.40
2023-03-22T01:53:50.363Z,17.98
2023-03-22T01:56:21.754Z,19.35
2023-03-22T01:58:50.953Z,20.20
2023-03-22T02:01:24.549Z,19.40
2023-03-22T02:03:58.459Z,20.23
2023-03-22T02:06:29.904Z,16.88
2023-03-22T02:09:05.220Z,18.65
2023-03-22T02:11:35.650Z,17.97
2023-03-22T02:14:27.297Z,18.92
2023-03-22T02:17:11.946Z,20.38
2023-03-22T02:20:28.344Z,16.98
2023-03-22T02:23:20.923Z,16.90
2023-03-22T02:26:15.941Z,16.23
2023-03-22T02:28:49.732Z,19.42
2023-03-22T02:31:34.538Z,18.88
2023-03-22T02:34:40.219Z,19.30
2023-03-22T02:37:30.307Z,17.65
2023-03-22T02:40:08.664Z,18.00
2023-03-22T02:42:46.426Z,16.63
2023-03-22T02:45:18.123Z,18.23
2023-03-22T02:47:54.633Z,17.67
2023-03-22T02:50:28.016Z,18.15
2023-03-22T02:53:04.144Z,17.27
2023-03-22T02:55:37.823Z,20.35
2023-03-22T02:58:09.965Z,19.13
2023-03-22T03:00:39.590Z,19.48
2023-03-22T03:03:12.596Z,18.08
2023-03-22T03:05:43.451Z,20.10
2023-03-22T03:08:12.482Z,19.83
2023-03-22T03:10:44.097Z,17.23
2023-03-22T03:13:13.007Z,20.25
2023-03-22T03:15:43.813Z,22.00
2023-03-22T03:18:23.048Z,18.30
2023-03-22T03:21:02.330Z,20.27
2023-03-22T03:23:37.901Z,18.83
2023-03-22T03:26:13.527Z,18.77
2023-03-22T03:28:49.803Z,19.48
2023-03-22T03:31:31.276Z,18.77
2023-03-22T03:34:07.082Z,18.83
2023-03-22T03:36:37.846Z,19.05
2023-03-22T03:39:08.711Z,15.52
2023-03-22T03:41:38.436Z,19.88
2023-03-22T03:44:06.625Z,17.77
2023-03-22T03:46:34.068Z,19.55
2023-03-22T03:49:04.068Z,17.73
2023-03-22T03:51:33.245Z,19.35
2023-03-22T03:54:00.667Z,17.33
2023-03-22T03:56:27.912Z,18.00
2023-03-22T03:58:58.274Z,18.55
2023-03-22T04:01:26.328Z,17.00
2023-03-22T04:04:10.733Z,19.13
2023-03-22T04:06:46.415Z,18.75
2023-03-22T04:09:21.329Z,18.10
2023-03-22T04:11:54.023Z,19.80
2023-03-22T04:14:23.564Z,17.52
2023-03-22T04:16:53.586Z,19.70
2023-03-22T04:19:22.744Z,19.45
2023-03-22T04:21:52.984Z,17.27
2023-03-22T04:24:21.544Z,18.27
2023-03-22T04:26:52.592Z,19.90
2023-03-22T04:29:25.976Z,16.90
2023-03-22T04:31:59.262Z,20.40
2023-03-22T04:34:36.822Z,19.60
2023-03-22T04:37:08.001Z,17.08
2023-03-22T04:39:38.201Z,19.55
2023-03-22T04:42:24.207Z,17.73
2023-03-22T04:45:03.959Z,18.20
2023-03-22T04:47:31.576Z,20.67
2023-03-22T04:49:59.408Z,20.60
2023-03-22T04:52:28.351Z,21.45
2023-03-22T04:54:57.151Z,18.60
2023-03-22T04:57:24.709Z,19.48
2023-03-22T04:59:51.957Z,17.43
2023-03-22T05:02:20.811Z,18.17
2023-03-22T05:04:49.277Z,18.17
2023-03-22T05:07:31.043Z,19.35
2023-03-22T05:10:00.412Z,20.13
2023-03-22T05:12:27.650Z,20.20
2023-03-22T05:15:17.994Z,17.58
2023-03-22T05:17:47.213Z,18.48
2023-03-22T05:20:15.252Z,20.13
2023-03-22T05:22:50.416Z,18.98
2023-03-22T05:25:20.159Z,18.67
2023-03-22T05:27:50.116Z,18.35
2023-03-22T05:30:33.697Z,19.20
2023-03-22T05:33:09.592Z,20.60
2023-03-22T05:35:43.294Z,20.95
2023-03-22T05:38:11.712Z,19.57
2023-03-22T05:40:44.293Z,20.00
2023-03-22T05:43:12.331Z,22.85
2023-03-22T05:45:45.619Z,19.70
2023-03-22T05:48:28.995Z,22.23
2023-03-22T05:50:56.452Z,18.23
2023-03-22T05:53:24.188Z,20.33
2023-03-22T05:56:00.811Z,20.55
2023-03-22T05:58:31.668Z,19.83
2023-03-22T06:01:05.977Z,21.55
2023-03-22T06:03:54.510Z,21.40
2023-03-22T06:06:30.812Z,20.73
2023-03-22T06:09:16.549Z,20.52
2023-03-22T06:11:46.343Z,23.60
2023-03-22T06:14:15.910Z,22.75
2023-03-22T06:17:01.799Z,19.83
2023-03-22T06:19:31.077Z,22.48
2023-03-22T06:22:01.713Z,20.20
2023-03-22T06:24:29.070Z,22.52
2023-03-22T06:26:56.286Z,20.40
2023-03-22T06:29:23.528Z,21.57
2023-03-22T06:31:53.589Z,20.52
2023-03-22T06:34:21.047Z,21.58
2023-03-22T06:36:50.206Z,22.35
2023-03-22T06:39:24.482Z,21.67
2023-03-22T06:41:51.788Z,21.83
2023-03-22T06:44:19.337Z,20.10
2023-03-22T06:46:52.596Z,19.98
2023-03-22T06:49:34.223Z,21.75
2023-03-22T06:52:03.550Z,22.27
2023-03-22T06:54:30.970Z,23.37
2023-03-22T06:56:58.216Z,21.40
2023-03-22T06:59:25.614Z,20.75
2023-03-22T07:01:52.801Z,21.15
2023-03-22T07:04:20.634Z,25.50
2023-03-22T07:06:49.904Z,22.00
2023-03-22T07:09:18.673Z,19.90
2023-03-22T07:11:48.661Z,25.30
2023-03-22T07:14:16.331Z,21.55
2023-03-22T07:17:09.812Z,21.52
2023-03-22T07:19:37.239Z,20.67
2023-03-22T07:22:08.898Z,21.98
2023-03-22T07:24:44.759Z,20.48
2023-03-22T07:27:14.716Z,20.50
2023-03-22T07:29:42.239Z,20.75
2023-03-22T07:32:10.475Z,23.33
2023-03-22T07:34:58.143Z,21.45
2023-03-22T07:37:25.792Z,20.98
2023-03-22T07:39:54.557Z,19.55
2023-03-22T07:42:22.632Z,18.85
2023-03-22T07:45:20.203Z,18.43
2023-03-22T07:48:11.252Z,19.92
2023-03-22T07:51:01.517Z,17.00
2023-03-22T07:53:30.947Z,17.30
2023-03-22T07:56:03.220Z,16.70
2023-03-22T07:58:31.518Z,20.07
2023-03-22T08:01:04.430Z,19.45
2023-03-22T08:03:57.476Z,18.00
2023-03-22T08:06:46.476Z,17.38
2023-03-22T08:09:14.090Z,18.55
2023-03-22T08:11:43.187Z,17.77
2023-03-22T08:14:10.869Z,17.90
2023-03-22T08:16:41.592Z,17.40
2023-03-22T08:19:09.011Z,19.10
2023-03-22T08:21:37.916Z,16.60
2023-03-22T08:24:09.144Z,18.30
2023-03-22T08:26:45.655Z,20.83
2023-03-22T08:29:19.821Z,19.63
2023-03-22T08:31:48.434Z,15.00
2023-03-22T08:34:16.030Z,18.25
2023-03-22T08:36:43.388Z,16.77
2023-03-22T08:39:10.755Z,18.90
2023-03-22T08:41:52.646Z,17.42
2023-03-22T08:44:19.952Z,15.85
2023-03-22T08:46:47.162Z,14.60
2023-03-22T08:49:15.032Z,16.07
2023-03-22T08:51:47.909Z,12.75
2023-03-22T08:54:33.387Z,16.25
2023-03-22T08:57:04.774Z,13.73
2023-03-22T08:59:41.970Z,15.18
2023-03-22T09:02:35.609Z,13.60
2023-03-22T09:05:05.787Z,15.00
2023-03-22T09:07:33.895Z,13.23
2023-03-22T09:10:10.842Z,14.88
2023-03-22T09:12:43.258Z,13.95
2023-03-22T09:15:11.191Z,15.60
2023-03-22T09:17:41.591Z,18.30
2023-03-22T09:20:13.069Z,15.45
2023-03-22T09:22:43.137Z,14.75
2023-03-22T09:25:13.553Z,13.95
2023-03-22T09:27:46.041Z,15.03
2023-03-22T09:30:14.429Z,13.27
2023-03-22T09:32:43.156Z,12.70
2023-03-22T09:35:13.227Z,14.38
2023-03-22T09:37:53.492Z,14.93
2023-03-22T09:40:25.332Z,12.17
2023-03-22T09:42:58.211Z,14.55
2023-03-22T09:45:38.542Z,12.07
2023-03-22T09:48:12.941Z,12.25
2023-03-22T09:50:46.827Z,11.88
2023-03-22T09:53:18.168Z,12.10
2023-03-22T09:55:51.998Z,11.98
2023-03-22T09:58:31.029Z,12.13
2023-03-22T10:01:01.753Z,13.10
2023-03-22T10:03:52.618Z,11.43
2023-03-22T10:06:21.920Z,10.73
2023-03-22T10:09:03.506Z,11.50
2023-03-22T10:11:45.005Z,9.60
2023-03-22T10:14:28.021Z,11.30
2023-03-22T10:16:57.367Z,13.95
2023-03-22T10:19:29.635Z,11.20
2023-03-22T10:21:59.632Z,10.85
2023-03-22T10:24:31.302Z,11.52
2023-03-22T10:26:58.905Z,13.30
2023-03-22T10:29:32.460Z,11.27
2023-03-22T10:32:13.291Z,10.40
2023-03-22T10:34:41.058Z,10.52
2023-03-22T10:37:13.641Z,11.70
2023-03-22T10:39:43.769Z,12.15
2023-03-22T10:42:15.476Z,10.98
2023-03-22T10:44:49.381Z,12.90
2023-03-22T10:47:19.029Z,9.98
2023-03-22T10:49:53.030Z,9.93
2023-03-22T10:52:34.755Z,9.07
2023-03-22T10:55:04.697Z,8.20
2023-03-22T10:57:32.144Z,10.00
2023-03-22T11:00:07.891Z,10.15
2023-03-22T11:02:51.411Z,10.60
2023-03-22T11:05:24.686Z,8.23
2023-03-22T11:07:54.255Z,9.68
2023-03-22T11:10:28.223Z,9.93
2023-03-22T11:13:10.807Z,8.25
2023-03-22T11:16:18.672Z,10.32
2023-03-22T11:18:48.934Z,9.77
2023-03-22T11:21:17.869Z,8.32
2023-03-22T11:23:53.997Z,8.70
2023-03-22T11:26:29.714Z,8.25
2023-03-22T11:29:10.582Z,8.48
2023-03-22T11:32:00.183Z,10.25
2023-03-22T11:34:29.928Z,8.85
2023-03-22T11:37:00.838Z,9.43
2023-03-22T11:39:29.912Z,8.63
2023-03-22T11:42:01.517Z,9.77
2023-03-22T11:44:33.999Z,12.57
2023-03-22T11:47:05.733Z,9.90
2023-03-22T11:49:40.230Z,9.27
2023-03-22T11:52:10.401Z,8.52
2023-03-22T11:54:39.492Z,7.07
2023-03-22T11:57:13.444Z,6.07
2023-03-22T11:59:47.694Z,6.38
2023-03-22T12:02:23.635Z,9.13
2023-03-22T12:05:00.592Z,6.25
2023-03-22T12:07:30.053Z,7.05
2023-03-22T12:10:01.876Z,6.75
2023-03-22T12:12:32.724Z,7.18
2023-03-22T12:15:04.123Z,6.87
2023-03-22T12:17:38.336Z,7.38
2023-03-22T12:20:16.597Z,8.40
2023-03-22T12:22:51.072Z,8.10
2023-03-22T12:25:23.199Z,6.53
2023-03-22T12:27:54.705Z,6.87
2023-03-22T12:30:25.661Z,8.18
2023-03-22T12:33:01.704Z,8.95
2023-03-22T12:35:31.962Z,6.72
2023-03-22T12:38:02.713Z,6.60
2023-03-22T12:40:34.394Z,7.10
2023-03-22T12:43:11.530Z,8.07
2023-03-22T12:45:42.835Z,8.25
2023-03-22T12:48:16.959Z,7.43
2023-03-22T12:50:48.734Z,6.90
2023-03-22T12:53:18.660Z,8.47
2023-03-22T12:55:47.379Z,6.15
2023-03-22T12:58:19.762Z,8.05
2023-03-22T13:00:50.952Z,6.68
2023-03-22T13:03:28.607Z,6.43
2023-03-22T13:06:03.209Z,5.93
2023-03-22T13:09:01.733Z,5.88
2023-03-22T13:11:29.236Z,6.68
2023-03-22T13:13:56.775Z,7.00
2023-03-22T13:16:44.857Z,5.85
2023-03-22T13:19:33.039Z,6.40
2023-03-22T13:22:50.848Z,5.22
2023-03-22T13:25:33.681Z,5.85
2023-03-22T13:28:03.504Z,6.30
2023-03-22T13:30:34.677Z,5.28
2023-03-22T13:33:14.067Z,5.97
2023-03-22T13:35:45.999Z,6.95
2023-03-22T13:38:21.027Z,5.40
2023-03-22T13:40:56.671Z,6.13
2023-03-22T13:43:30.974Z,5.50
2023-03-22T13:46:11.173Z,4.83
2023-03-22T13:48:53.772Z,6.47
2023-03-22T13:51:30.041Z,6.55
2023-03-22T13:54:04.727Z,5.15
2023-03-22T13:56:53.235Z,4.75
2023-03-22T13:59:25.284Z,7.03
2023-03-22T14:01:57.172Z,4.85
2023-03-22T14:04:30.537Z,5.45
2023-03-22T14:07:04.281Z,5.28
2023-03-22T14:09:35.958Z,6.65
2023-03-22T14:12:14.399Z,6.40
2023-03-22T14:14:47.189Z,5.35
2023-03-22T14:17:21.920Z,5.53
2023-03-22T14:19:51.789Z,5.85
